sensor_id;sensor_type;location;lat;lon;timestamp;pressure;altitude;pressure_sealevel;temperature;humidity
63556;BME280;49700;48.072;7.800;2022-12-10T00:01:55;98318.28;;;2.60;76.70
63556;BME280;49700;48.072;7.800;2022-12-10T00:04:21;98314.69;;;2.62;76.79
63556;BME280;49700;48.072;7.800;2022-12-10T00:06:47;98310.25;;;2.64;76.61
63556;BME280;49700;48.072;7.800;2022-12-10T00:09:14;98309.50;;;2.62;76.27
63556;BME280;49700;48.072;7.800;2022-12-10T00:11:40;98312.25;;;2.59;76.37
63556;BME280;49700;48.072;7.800;2022-12-10T00:14:06;98315.97;;;2.54;76.35
63556;BME280;49700;48.072;7.800;2022-12-10T00:16:32;98315.47;;;2.47;76.30
63556;BME280;49700;48.072;7.800;2022-12-10T00:18:59;98312.13;;;2.45;77.07
63556;BME280;49700;48.072;7.800;2022-12-10T00:21:27;98319.06;;;2.44;76.85
63556;BME280;49700;48.072;7.800;2022-12-10T00:23:53;98321.50;;;2.48;76.97
63556;BME280;49700;48.072;7.800;2022-12-10T00:26:28;98319.50;;;2.53;76.95
63556;BME280;49700;48.072;7.800;2022-12-10T00:28:54;98329.72;;;2.56;76.76
63556;BME280;49700;48.072;7.800;2022-12-10T00:31:29;98333.13;;;2.56;76.83
63556;BME280;49700;48.072;7.800;2022-12-10T00:33:57;98327.13;;;2.56;76.73
63556;BME280;49700;48.072;7.800;2022-12-10T00:36:37;98319.28;;;2.57;76.79
63556;BME280;49700;48.072;7.800;2022-12-10T00:39:04;98321.88;;;2.57;76.88
63556;BME280;49700;48.072;7.800;2022-12-10T00:41:30;98317.75;;;2.53;76.50
63556;BME280;49700;48.072;7.800;2022-12-10T00:43:55;98312.88;;;2.47;76.84
63556;BME280;49700;48.072;7.800;2022-12-10T00:46:21;98315.63;;;2.44;76.90
63556;BME280;49700;48.072;7.800;2022-12-10T00:48:46;98306.25;;;2.41;76.89
63556;BME280;49700;48.072;7.800;2022-12-10T00:51:17;98316.69;;;2.40;76.70
63556;BME280;49700;48.072;7.800;2022-12-10T00:53:44;98309.03;;;2.38;77.11
63556;BME280;49700;48.072;7.800;2022-12-10T00:56:12;98313.44;;;2.36;77.00
63556;BME280;49700;48.072;7.800;2022-12-10T00:58:38;98331.50;;;2.38;77.27
63556;BME280;49700;48.072;7.800;2022-12-10T01:03:40;98352.91;;;2.41;77.23
63556;BME280;49700;48.072;7.800;2022-12-10T01:06:22;98348.56;;;2.42;77.19
63556;BME280;49700;48.072;7.800;2022-12-10T01:08:49;98349.41;;;2.42;77.30
63556;BME280;49700;48.072;7.800;2022-12-10T01:11:17;98360.59;;;2.43;77.33
63556;BME280;49700;48.072;7.800;2022-12-10T01:13:44;98358.78;;;2.45;77.21
63556;BME280;49700;48.072;7.800;2022-12-10T01:16:12;98357.09;;;2.44;77.12
63556;BME280;49700;48.072;7.800;2022-12-10T01:18:39;98363.13;;;2.44;77.19
63556;BME280;49700;48.072;7.800;2022-12-10T01:21:07;98353.59;;;2.45;76.96
63556;BME280;49700;48.072;7.800;2022-12-10T01:23:38;98357.78;;;2.48;77.23
63556;BME280;49700;48.072;7.800;2022-12-10T01:26:06;98351.00;;;2.45;77.25
63556;BME280;49700;48.072;7.800;2022-12-10T01:28:34;98331.19;;;2.44;77.12
63556;BME280;49700;48.072;7.800;2022-12-10T01:31:02;98324.31;;;2.43;77.10
63556;BME280;49700;48.072;7.800;2022-12-10T01:33:28;98320.97;;;2.41;77.21
63556;BME280;49700;48.072;7.800;2022-12-10T01:35:54;98328.81;;;2.39;77.05
63556;BME280;49700;48.072;7.800;2022-12-10T01:38:20;98337.53;;;2.38;77.22
63556;BME280;49700;48.072;7.800;2022-12-10T01:40:45;98335.94;;;2.36;77.21
63556;BME280;49700;48.072;7.800;2022-12-10T01:43:14;98341.25;;;2.33;77.49
63556;BME280;49700;48.072;7.800;2022-12-10T01:45:40;98349.25;;;2.28;77.46
63556;BME280;49700;48.072;7.800;2022-12-10T01:48:06;98360.56;;;2.27;77.60
63556;BME280;49700;48.072;7.800;2022-12-10T01:50:32;98362.97;;;2.30;77.86
63556;BME280;49700;48.072;7.800;2022-12-10T01:52:57;98354.97;;;2.35;77.70
63556;BME280;49700;48.072;7.800;2022-12-10T01:55:44;98357.25;;;2.41;77.73
63556;BME280;49700;48.072;7.800;2022-12-10T01:58:12;98352.75;;;2.44;77.83
63556;BME280;49700;48.072;7.800;2022-12-10T02:00:50;98354.28;;;2.49;77.62
63556;BME280;49700;48.072;7.800;2022-12-10T02:03:27;98362.72;;;2.52;77.38
63556;BME280;49700;48.072;7.800;2022-12-10T02:06:05;98357.47;;;2.54;77.33
63556;BME280;49700;48.072;7.800;2022-12-10T02:08:49;98361.75;;;2.55;77.31
63556;BME280;49700;48.072;7.800;2022-12-10T02:11:22;98365.09;;;2.57;77.08
63556;BME280;49700;48.072;7.800;2022-12-10T02:13:57;98358.22;;;2.56;77.13
63556;BME280;49700;48.072;7.800;2022-12-10T02:16:40;98366.31;;;2.50;77.35
63556;BME280;49700;48.072;7.800;2022-12-10T02:19:41;98366.63;;;2.43;77.19
63556;BME280;49700;48.072;7.800;2022-12-10T02:22:12;98369.44;;;2.39;77.37
63556;BME280;49700;48.072;7.800;2022-12-10T02:24:39;98380.66;;;2.39;77.14
63556;BME280;49700;48.072;7.800;2022-12-10T02:27:26;98370.38;;;2.38;77.60
63556;BME280;49700;48.072;7.800;2022-12-10T02:29:53;98372.03;;;2.39;77.67
63556;BME280;49700;48.072;7.800;2022-12-10T02:32:24;98367.69;;;2.39;77.61
63556;BME280;49700;48.072;7.800;2022-12-10T02:34:54;98363.44;;;2.38;78.09
63556;BME280;49700;48.072;7.800;2022-12-10T02:37:25;98364.44;;;2.36;78.12
63556;BME280;49700;48.072;7.800;2022-12-10T02:39:58;98368.84;;;2.34;78.18
63556;BME280;49700;48.072;7.800;2022-12-10T02:42:28;98367.25;;;2.31;78.10
63556;BME280;49700;48.072;7.800;2022-12-10T02:44:56;98366.56;;;2.28;78.19
63556;BME280;49700;48.072;7.800;2022-12-10T02:47:22;98364.19;;;2.23;77.98
63556;BME280;49700;48.072;7.800;2022-12-10T02:49:51;98367.63;;;2.24;77.95
63556;BME280;49700;48.072;7.800;2022-12-10T02:52:20;98365.13;;;2.22;78.36
63556;BME280;49700;48.072;7.800;2022-12-10T02:54:49;98371.81;;;2.26;78.35
63556;BME280;49700;48.072;7.800;2022-12-10T03:00:20;98367.78;;;2.38;77.99
63556;BME280;49700;48.072;7.800;2022-12-10T03:03:22;98368.31;;;2.44;77.99
63556;BME280;49700;48.072;7.800;2022-12-10T03:06:22;98356.09;;;2.47;78.02
63556;BME280;49700;48.072;7.800;2022-12-10T03:09:05;98351.59;;;2.50;78.03
63556;BME280;49700;48.072;7.800;2022-12-10T03:11:31;98363.56;;;2.53;77.67
63556;BME280;49700;48.072;7.800;2022-12-10T03:14:19;98363.41;;;2.56;77.53
63556;BME280;49700;48.072;7.800;2022-12-10T03:16:56;98359.97;;;2.55;77.30
63556;BME280;49700;48.072;7.800;2022-12-10T03:19:26;98354.28;;;2.49;77.44
63556;BME280;49700;48.072;7.800;2022-12-10T03:21:53;98357.00;;;2.46;77.57
63556;BME280;49700;48.072;7.800;2022-12-10T03:24:26;98355.34;;;2.44;77.73
63556;BME280;49700;48.072;7.800;2022-12-10T03:26:52;98356.28;;;2.43;77.50
63556;BME280;49700;48.072;7.800;2022-12-10T03:29:22;98356.28;;;2.43;77.61
63556;BME280;49700;48.072;7.800;2022-12-10T03:31:50;98360.59;;;2.43;77.70
63556;BME280;49700;48.072;7.800;2022-12-10T03:34:17;98355.34;;;2.44;77.99
63556;BME280;49700;48.072;7.800;2022-12-10T03:36:43;98355.94;;;2.50;78.18
63556;BME280;49700;48.072;7.800;2022-12-10T03:39:10;98353.19;;;2.53;78.32
63556;BME280;49700;48.072;7.800;2022-12-10T03:41:36;98353.03;;;2.56;77.91
63556;BME280;49700;48.072;7.800;2022-12-10T03:44:01;98359.06;;;2.56;77.67
63556;BME280;49700;48.072;7.800;2022-12-10T03:46:29;98357.31;;;2.57;78.14
63556;BME280;49700;48.072;7.800;2022-12-10T03:48:55;98352.16;;;2.57;77.51
63556;BME280;49700;48.072;7.800;2022-12-10T03:51:21;98352.16;;;2.57;77.68
63556;BME280;49700;48.072;7.800;2022-12-10T03:53:47;98351.38;;;2.55;77.34
63556;BME280;49700;48.072;7.800;2022-12-10T03:56:19;98347.25;;;2.51;77.27
63556;BME280;49700;48.072;7.800;2022-12-10T03:58:45;98356.09;;;2.47;77.77
63556;BME280;49700;48.072;7.800;2022-12-10T04:01:12;98358.88;;;2.43;77.65
63556;BME280;49700;48.072;7.800;2022-12-10T04:03:39;98354.66;;;2.41;77.71
63556;BME280;49700;48.072;7.800;2022-12-10T04:06:09;98354.84;;;2.38;77.82
63556;BME280;49700;48.072;7.800;2022-12-10T04:08:35;98349.78;;;2.35;77.76
63556;BME280;49700;48.072;7.800;2022-12-10T04:11:09;98348.13;;;2.34;77.86
63556;BME280;49700;48.072;7.800;2022-12-10T04:13:36;98351.53;;;2.34;77.66
63556;BME280;49700;48.072;7.800;2022-12-10T04:16:21;98362.44;;;2.41;78.02
63556;BME280;49700;48.072;7.800;2022-12-10T04:19:05;98360.22;;;2.51;77.93
63556;BME280;49700;48.072;7.800;2022-12-10T04:21:32;98363.19;;;2.60;77.90
63556;BME280;49700;48.072;7.800;2022-12-10T04:24:18;98359.22;;;2.71;77.80
63556;BME280;49700;48.072;7.800;2022-12-10T04:27:08;98349.44;;;2.76;77.24
63556;BME280;49700;48.072;7.800;2022-12-10T04:29:34;98345.97;;;2.75;77.37
63556;BME280;49700;48.072;7.800;2022-12-10T04:32:00;98345.97;;;2.75;77.23
63556;BME280;49700;48.072;7.800;2022-12-10T04:34:25;98348.13;;;2.67;77.39
63556;BME280;49700;48.072;7.800;2022-12-10T04:36:51;98350.66;;;2.69;77.80
63556;BME280;49700;48.072;7.800;2022-12-10T04:39:17;98349.66;;;2.71;77.94
63556;BME280;49700;48.072;7.800;2022-12-10T04:41:45;98358.22;;;2.73;77.57
63556;BME280;49700;48.072;7.800;2022-12-10T04:44:11;98357.22;;;2.76;77.76
63556;BME280;49700;48.072;7.800;2022-12-10T04:46:37;98354.53;;;2.77;77.77
63556;BME280;49700;48.072;7.800;2022-12-10T04:49:04;98350.94;;;2.80;77.65
63556;BME280;49700;48.072;7.800;2022-12-10T04:51:30;98346.69;;;2.79;77.41
63556;BME280;49700;48.072;7.800;2022-12-10T04:53:56;98352.69;;;2.79;77.42
63556;BME280;49700;48.072;7.800;2022-12-10T04:56:21;98354.53;;;2.77;77.24
63556;BME280;49700;48.072;7.800;2022-12-10T04:58:47;98354.53;;;2.77;77.61
63556;BME280;49700;48.072;7.800;2022-12-10T05:01:13;98352.63;;;2.81;77.16
63556;BME280;49700;48.072;7.800;2022-12-10T05:03:39;98356.06;;;2.81;77.61
63556;BME280;49700;48.072;7.800;2022-12-10T05:06:07;98354.97;;;2.85;77.42
63556;BME280;49700;48.072;7.800;2022-12-10T05:08:34;98360.69;;;2.92;77.74
63556;BME280;49700;48.072;7.800;2022-12-10T05:11:04;98360.28;;;3.00;77.80
63556;BME280;49700;48.072;7.800;2022-12-10T05:13:30;98365.13;;;3.06;77.43
63556;BME280;49700;48.072;7.800;2022-12-10T05:15:56;98375.34;;;3.09;77.47
63556;BME280;49700;48.072;7.800;2022-12-10T05:18:22;98375.34;;;3.09;77.13
63556;BME280;49700;48.072;7.800;2022-12-10T05:20:47;98373.00;;;3.04;76.81
63556;BME280;49700;48.072;7.800;2022-12-10T05:23:13;98368.81;;;3.02;76.94
63556;BME280;49700;48.072;7.800;2022-12-10T05:28:37;98369.28;;;2.93;77.16
63556;BME280;49700;48.072;7.800;2022-12-10T05:31:04;98364.44;;;2.86;76.92
63556;BME280;49700;48.072;7.800;2022-12-10T05:33:31;98371.53;;;2.83;77.00
63556;BME280;49700;48.072;7.800;2022-12-10T05:36:00;98373.38;;;2.81;77.25
63556;BME280;49700;48.072;7.800;2022-12-10T05:38:26;98379.41;;;2.81;77.40
63556;BME280;49700;48.072;7.800;2022-12-10T05:40:52;98381.81;;;2.84;77.25
63556;BME280;49700;48.072;7.800;2022-12-10T05:43:18;98381.66;;;2.87;76.82
63556;BME280;49700;48.072;7.800;2022-12-10T05:45:43;98394.69;;;2.86;77.13
63556;BME280;49700;48.072;7.800;2022-12-10T05:48:12;98400.16;;;2.81;76.94
63556;BME280;49700;48.072;7.800;2022-12-10T05:50:38;98401.13;;;2.79;77.14
63556;BME280;49700;48.072;7.800;2022-12-10T05:53:04;98387.34;;;2.78;77.21
63556;BME280;49700;48.072;7.800;2022-12-10T05:55:29;98402.75;;;2.81;77.00
63556;BME280;49700;48.072;7.800;2022-12-10T05:57:57;98406.22;;;2.80;76.59
63556;BME280;49700;48.072;7.800;2022-12-10T06:00:22;98404.72;;;2.76;76.63
63556;BME280;49700;48.072;7.800;2022-12-10T06:02:49;98404.19;;;2.70;76.76
63556;BME280;49700;48.072;7.800;2022-12-10T06:05:15;98412.44;;;2.60;76.72
63556;BME280;49700;48.072;7.800;2022-12-10T06:07:41;98418.94;;;2.52;77.02
63556;BME280;49700;48.072;7.800;2022-12-10T06:10:06;98420.19;;;2.43;76.78
63556;BME280;49700;48.072;7.800;2022-12-10T06:12:32;98423.88;;;2.39;77.46
63556;BME280;49700;48.072;7.800;2022-12-10T06:14:58;98424.84;;;2.36;77.58
63556;BME280;49700;48.072;7.800;2022-12-10T06:17:23;98429.88;;;2.39;77.29
63556;BME280;49700;48.072;7.800;2022-12-10T06:19:48;98425.63;;;2.38;77.37
63556;BME280;49700;48.072;7.800;2022-12-10T06:22:14;98419.69;;;2.36;77.16
63556;BME280;49700;48.072;7.800;2022-12-10T06:24:39;98434.53;;;2.33;77.60
63556;BME280;49700;48.072;7.800;2022-12-10T06:27:05;98433.78;;;2.31;77.60
63556;BME280;49700;48.072;7.800;2022-12-10T06:29:30;98436.22;;;2.34;77.59
63556;BME280;49700;48.072;7.800;2022-12-10T06:31:55;98437.59;;;2.41;77.66
63556;BME280;49700;48.072;7.800;2022-12-10T06:34:21;98440.72;;;2.48;77.58
63556;BME280;49700;48.072;7.800;2022-12-10T06:36:47;98442.25;;;2.52;77.35
63556;BME280;49700;48.072;7.800;2022-12-10T06:39:12;98443.16;;;2.51;77.55
63556;BME280;49700;48.072;7.800;2022-12-10T06:41:38;98449.19;;;2.51;77.26
63556;BME280;49700;48.072;7.800;2022-12-10T06:44:07;98451.69;;;2.53;77.29
63556;BME280;49700;48.072;7.800;2022-12-10T06:46:32;98444.84;;;2.52;77.29
63556;BME280;49700;48.072;7.800;2022-12-10T06:48:58;98451.03;;;2.49;77.17
63556;BME280;49700;48.072;7.800;2022-12-10T06:51:23;98454.66;;;2.45;77.46
63556;BME280;49700;48.072;7.800;2022-12-10T06:53:49;98456.41;;;2.44;77.49
63556;BME280;49700;48.072;7.800;2022-12-10T06:56:16;98460.84;;;2.42;77.41
63556;BME280;49700;48.072;7.800;2022-12-10T06:58:43;98466.94;;;2.41;77.77
63556;BME280;49700;48.072;7.800;2022-12-10T07:01:12;98465.28;;;2.40;77.58
63556;BME280;49700;48.072;7.800;2022-12-10T07:03:37;98463.50;;;2.41;77.92
63556;BME280;49700;48.072;7.800;2022-12-10T07:06:04;98472.19;;;2.40;77.75
63556;BME280;49700;48.072;7.800;2022-12-10T07:08:30;98468.91;;;2.36;77.65
63556;BME280;49700;48.072;7.800;2022-12-10T07:10:56;98469.91;;;2.34;77.68
63556;BME280;49700;48.072;7.800;2022-12-10T07:13:22;98473.47;;;2.31;77.88
63556;BME280;49700;48.072;7.800;2022-12-10T07:15:47;98478.75;;;2.30;77.81
63556;BME280;49700;48.072;7.800;2022-12-10T07:18:13;98483.94;;;2.30;77.81
63556;BME280;49700;48.072;7.800;2022-12-10T07:20:38;98483.84;;;2.31;77.73
63556;BME280;49700;48.072;7.800;2022-12-10T07:23:05;98487.41;;;2.29;78.12
63556;BME280;49700;48.072;7.800;2022-12-10T07:25:32;98488.25;;;2.29;77.97
63556;BME280;49700;48.072;7.800;2022-12-10T07:27:58;98498.63;;;2.29;77.95
63556;BME280;49700;48.072;7.800;2022-12-10T07:30:23;98496.66;;;2.34;77.96
63556;BME280;49700;48.072;7.800;2022-12-10T07:32:49;98506.75;;;2.40;78.02
63556;BME280;49700;48.072;7.800;2022-12-10T07:35:14;98506.44;;;2.47;77.80
63556;BME280;49700;48.072;7.800;2022-12-10T07:37:39;98506.28;;;2.50;77.49
63556;BME280;49700;48.072;7.800;2022-12-10T07:40:05;98514.84;;;2.52;77.73
63556;BME280;49700;48.072;7.800;2022-12-10T07:42:31;98510.38;;;2.54;77.68
63556;BME280;49700;48.072;7.800;2022-12-10T07:44:56;98510.31;;;2.55;77.56
63556;BME280;49700;48.072;7.800;2022-12-10T07:47:22;98521.53;;;2.56;77.60
63556;BME280;49700;48.072;7.800;2022-12-10T07:49:48;98518.03;;;2.57;77.85
63556;BME280;49700;48.072;7.800;2022-12-10T07:52:13;98520.69;;;2.55;77.74
63556;BME280;49700;48.072;7.800;2022-12-10T07:54:39;98530.28;;;2.53;77.58
63556;BME280;49700;48.072;7.800;2022-12-10T07:57:04;98529.59;;;2.50;77.77
63556;BME280;49700;48.072;7.800;2022-12-10T07:59:30;98526.19;;;2.49;77.75
63556;BME280;49700;48.072;7.800;2022-12-10T08:01:56;98533.13;;;2.49;77.76
63556;BME280;49700;48.072;7.800;2022-12-10T08:04:21;98530.53;;;2.49;77.75
63556;BME280;49700;48.072;7.800;2022-12-10T08:06:47;98543.56;;;2.47;77.73
63556;BME280;49700;48.072;7.800;2022-12-10T08:09:12;98536.69;;;2.46;77.94
63556;BME280;49700;48.072;7.800;2022-12-10T08:11:38;98544.38;;;2.48;77.94
63556;BME280;49700;48.072;7.800;2022-12-10T08:14:04;98542.56;;;2.50;77.83
63556;BME280;49700;48.072;7.800;2022-12-10T08:16:29;98547.59;;;2.53;77.80
63556;BME280;49700;48.072;7.800;2022-12-10T08:18:57;98549.16;;;2.57;77.93
63556;BME280;49700;48.072;7.800;2022-12-10T08:21:26;98554.19;;;2.60;77.93
63556;BME280;49700;48.072;7.800;2022-12-10T08:23:52;98549.84;;;2.60;77.60
63556;BME280;49700;48.072;7.800;2022-12-10T08:26:20;98557.56;;;2.62;77.87
63556;BME280;49700;48.072;7.800;2022-12-10T08:28:47;98555.84;;;2.61;77.74
63556;BME280;49700;48.072;7.800;2022-12-10T08:31:18;98557.47;;;2.63;77.76
63556;BME280;49700;48.072;7.800;2022-12-10T08:33:43;98552.22;;;2.65;77.49
63556;BME280;49700;48.072;7.800;2022-12-10T08:36:12;98557.25;;;2.68;77.78
63556;BME280;49700;48.072;7.800;2022-12-10T08:38:37;98556.31;;;2.69;77.59
63556;BME280;49700;48.072;7.800;2022-12-10T08:41:11;98557.09;;;2.71;77.52
63556;BME280;49700;48.072;7.800;2022-12-10T08:43:37;98559.59;;;2.73;77.57
63556;BME280;49700;48.072;7.800;2022-12-10T08:46:02;98567.25;;;2.76;77.35
63556;BME280;49700;48.072;7.800;2022-12-10T08:48:29;98568.28;;;2.72;77.54
63556;BME280;49700;48.072;7.800;2022-12-10T08:50:54;98564.03;;;2.71;77.65
63556;BME280;49700;48.072;7.800;2022-12-10T08:53:21;98570.97;;;2.70;77.29
63556;BME280;49700;48.072;7.800;2022-12-10T08:55:49;98577.97;;;2.68;77.61
63556;BME280;49700;48.072;7.800;2022-12-10T08:58:15;98572.88;;;2.66;77.57
63556;BME280;49700;48.072;7.800;2022-12-10T09:00:41;98577.22;;;2.66;77.73
63556;BME280;49700;48.072;7.800;2022-12-10T09:03:08;98587.72;;;2.63;77.72
63556;BME280;49700;48.072;7.800;2022-12-10T09:05:34;98587.72;;;2.63;77.75
63556;BME280;49700;48.072;7.800;2022-12-10T09:08:00;98588.66;;;2.62;77.60
63556;BME280;49700;48.072;7.800;2022-12-10T09:10:25;98592.91;;;2.63;77.77
63556;BME280;49700;48.072;7.800;2022-12-10T09:12:51;98598.94;;;2.63;77.56
63556;BME280;49700;48.072;7.800;2022-12-10T09:15:16;98600.69;;;2.63;77.48
63556;BME280;49700;48.072;7.800;2022-12-10T09:17:42;98607.69;;;2.61;77.20
63556;BME280;49700;48.072;7.800;2022-12-10T09:20:07;98610.38;;;2.59;77.42
63556;BME280;49700;48.072;7.800;2022-12-10T09:22:33;98611.22;;;2.60;77.60
63556;BME280;49700;48.072;7.800;2022-12-10T09:25:04;98605.09;;;2.61;77.71
63556;BME280;49700;48.072;7.800;2022-12-10T09:27:30;98616.25;;;2.63;77.64
63556;BME280;49700;48.072;7.800;2022-12-10T09:29:56;98614.34;;;2.66;77.79
63556;BME280;49700;48.072;7.800;2022-12-10T09:32:21;98623.66;;;2.71;77.98
63556;BME280;49700;48.072;7.800;2022-12-10T09:34:46;98620.00;;;2.75;77.77
63556;BME280;49700;48.072;7.800;2022-12-10T09:37:15;98621.47;;;2.80;77.71
63556;BME280;49700;48.072;7.800;2022-12-10T09:39:40;98618.72;;;2.83;77.35
63556;BME280;49700;48.072;7.800;2022-12-10T09:42:18;98620.41;;;2.84;77.47
63556;BME280;49700;48.072;7.800;2022-12-10T09:47:48;98611.66;;;2.87;77.59
63556;BME280;49700;48.072;7.800;2022-12-10T09:50:22;98616.91;;;2.85;77.43
63556;BME280;49700;48.072;7.800;2022-12-10T09:52:51;98617.06;;;2.82;77.34
63556;BME280;49700;48.072;7.800;2022-12-10T09:55:31;98611.09;;;2.80;77.17
63556;BME280;49700;48.072;7.800;2022-12-10T09:57:59;98613.00;;;2.77;77.06
63556;BME280;49700;48.072;7.800;2022-12-10T10:00:32;98612.47;;;2.70;77.20
63556;BME280;49700;48.072;7.800;2022-12-10T10:03:00;98611.69;;;2.68;77.57
63556;BME280;49700;48.072;7.800;2022-12-10T10:05:31;98611.69;;;2.68;77.27
63556;BME280;49700;48.072;7.800;2022-12-10T10:08:05;98619.47;;;2.68;77.66
63556;BME280;49700;48.072;7.800;2022-12-10T10:10:40;98619.47;;;2.68;77.45
63556;BME280;49700;48.072;7.800;2022-12-10T10:15:37;98621.13;;;2.69;77.36
63556;BME280;49700;48.072;7.800;2022-12-10T10:20:40;98623.72;;;2.69;77.36
63556;BME280;49700;48.072;7.800;2022-12-10T10:23:06;98629.69;;;2.71;77.19
63556;BME280;49700;48.072;7.800;2022-12-10T10:25:33;98626.19;;;2.72;77.23
63556;BME280;49700;48.072;7.800;2022-12-10T10:27:59;98635.56;;;2.75;77.55
63556;BME280;49700;48.072;7.800;2022-12-10T10:30:25;98631.22;;;2.75;77.22
63556;BME280;49700;48.072;7.800;2022-12-10T10:32:53;98627.00;;;2.73;77.32
63556;BME280;49700;48.072;7.800;2022-12-10T10:35:31;98632.97;;;2.75;77.26
63556;BME280;49700;48.072;7.800;2022-12-10T10:38:13;98635.56;;;2.75;77.20
63556;BME280;49700;48.072;7.800;2022-12-10T10:40:41;98636.34;;;2.77;77.17
63556;BME280;49700;48.072;7.800;2022-12-10T10:43:14;98642.44;;;2.76;76.95
63556;BME280;49700;48.072;7.800;2022-12-10T10:45:42;98633.91;;;2.74;77.25
63556;BME280;49700;48.072;7.800;2022-12-10T10:48:21;98630.53;;;2.72;77.25
63556;BME280;49700;48.072;7.800;2022-12-10T10:51:04;98634.09;;;2.69;77.33
63556;BME280;49700;48.072;7.800;2022-12-10T11:01:18;98656.06;;;2.62;77.29
63556;BME280;49700;48.072;7.800;2022-12-10T11:03:54;98644.91;;;2.60;77.28
63556;BME280;49700;48.072;7.800;2022-12-10T11:06:20;98645.81;;;2.59;77.61
63556;BME280;49700;48.072;7.800;2022-12-10T11:08:46;98648.50;;;2.57;77.30
63556;BME280;49700;48.072;7.800;2022-12-10T11:11:31;98649.63;;;2.52;77.49
63556;BME280;49700;48.072;7.800;2022-12-10T11:16:48;98648.34;;;2.41;77.67
63556;BME280;49700;48.072;7.800;2022-12-10T11:19:22;98655.28;;;2.41;77.45
63556;BME280;49700;48.072;7.800;2022-12-10T11:21:48;98651.97;;;2.37;77.55
63556;BME280;49700;48.072;7.800;2022-12-10T11:24:16;98648.66;;;2.35;77.69
63556;BME280;49700;48.072;7.800;2022-12-10T11:27:08;98647.66;;;2.38;77.90
63556;BME280;49700;48.072;7.800;2022-12-10T11:29:44;98642.34;;;2.41;77.81
63556;BME280;49700;48.072;7.800;2022-12-10T11:41:06;98642.03;;;2.47;77.32
63556;BME280;49700;48.072;7.800;2022-12-10T11:49:37;98654.09;;;2.48;77.66
63556;BME280;49700;48.072;7.800;2022-12-10T11:54:53;98660.00;;;2.52;77.61
63556;BME280;49700;48.072;7.800;2022-12-10T12:02:29;98670.84;;;2.60;77.53
63556;BME280;49700;48.072;7.800;2022-12-10T12:11:10;98676.81;;;2.62;77.56
63556;BME280;49700;48.072;7.800;2022-12-10T12:13:24;98679.59;;;2.57;77.48
63556;BME280;49700;48.072;7.800;2022-12-10T12:16:02;98680.56;;;2.55;77.54
63556;BME280;49700;48.072;7.800;2022-12-10T12:18:47;98686.66;;;2.54;77.33
63556;BME280;49700;48.072;7.800;2022-12-10T12:24:25;98684.44;;;2.46;77.74
63556;BME280;49700;48.072;7.800;2022-12-10T12:27:25;98693.19;;;2.43;77.63
63556;BME280;49700;48.072;7.800;2022-12-10T12:30:33;98686.31;;;2.42;77.48
63556;BME280;49700;48.072;7.800;2022-12-10T12:33:32;98691.50;;;2.42;77.69
63556;BME280;49700;48.072;7.800;2022-12-10T12:36:28;98694.81;;;2.46;77.49
63556;BME280;49700;48.072;7.800;2022-12-10T12:39:36;98705.03;;;2.49;77.41
63556;BME280;49700;48.072;7.800;2022-12-10T12:43:00;98698.88;;;2.52;77.52
63556;BME280;49700;48.072;7.800;2022-12-10T12:46:04;98703.97;;;2.53;77.22
63556;BME280;49700;48.072;7.800;2022-12-10T13:05:31;98728.06;;;2.55;77.31
63556;BME280;49700;48.072;7.800;2022-12-10T13:11:19;98744.47;;;2.56;77.63
63556;BME280;49700;48.072;7.800;2022-12-10T13:32:04;98748.75;;;2.57;77.49
63556;BME280;49700;48.072;7.800;2022-12-10T13:34:35;98747.63;;;2.62;78.02
63556;BME280;49700;48.072;7.800;2022-12-10T13:44:59;98759.19;;;2.93;77.13
63556;BME280;49700;48.072;7.800;2022-12-10T14:04:58;98783.47;;;2.73;77.37
63556;BME280;49700;48.072;7.800;2022-12-10T14:07:31;98791.44;;;2.69;77.51
63556;BME280;49700;48.072;7.800;2022-12-10T14:09:58;98791.78;;;2.61;77.10
63556;BME280;49700;48.072;7.800;2022-12-10T14:12:28;98798.13;;;2.54;77.36
63556;BME280;49700;48.072;7.800;2022-12-10T14:15:06;98802.69;;;2.49;77.37
63556;BME280;49700;48.072;7.800;2022-12-10T14:17:36;98806.25;;;2.46;77.59
63556;BME280;49700;48.072;7.800;2022-12-10T14:20:04;98810.66;;;2.44;77.52
63556;BME280;49700;48.072;7.800;2022-12-10T14:22:43;98807.97;;;2.46;77.70
63556;BME280;49700;48.072;7.800;2022-12-10T14:25:13;98814.88;;;2.47;77.60
63556;BME280;49700;48.072;7.800;2022-12-10T14:27:38;98820.84;;;2.49;77.77
63556;BME280;49700;48.072;7.800;2022-12-10T14:30:15;98823.06;;;2.56;77.64
63556;BME280;49700;48.072;7.800;2022-12-10T14:32:41;98827.19;;;2.62;77.65
63556;BME280;49700;48.072;7.800;2022-12-10T14:35:13;98830.38;;;2.67;77.65
63556;BME280;49700;48.072;7.800;2022-12-10T14:37:41;98832.78;;;2.72;77.41
63556;BME280;49700;48.072;7.800;2022-12-10T14:40:08;98835.31;;;2.73;77.22
63556;BME280;49700;48.072;7.800;2022-12-10T14:42:38;98831.66;;;2.77;77.55
63556;BME280;49700;48.072;7.800;2022-12-10T14:45:05;98838.41;;;2.81;77.25
63556;BME280;49700;48.072;7.800;2022-12-10T14:47:38;98840.16;;;2.81;76.97
63556;BME280;49700;48.072;7.800;2022-12-10T14:50:12;98842.88;;;2.78;77.00
63556;BME280;49700;48.072;7.800;2022-12-10T14:52:50;98846.59;;;2.72;77.12
63556;BME280;49700;48.072;7.800;2022-12-10T14:55:18;98843.16;;;2.72;77.31
63556;BME280;49700;48.072;7.800;2022-12-10T14:57:50;98849.31;;;2.69;77.63
63556;BME280;49700;48.072;7.800;2022-12-10T15:00:19;98854.50;;;2.69;77.38
63556;BME280;49700;48.072;7.800;2022-12-10T15:05:23;98857.28;;;2.64;77.44
63556;BME280;49700;48.072;7.800;2022-12-10T15:07:55;98865.41;;;2.57;77.32
63556;BME280;49700;48.072;7.800;2022-12-10T15:10:28;98859.63;;;2.50;77.49
63556;BME280;49700;48.072;7.800;2022-12-10T15:12:57;98859.00;;;2.45;77.41
63556;BME280;49700;48.072;7.800;2022-12-10T15:15:33;98870.31;;;2.42;77.70
63556;BME280;49700;48.072;7.800;2022-12-10T15:18:16;98867.88;;;2.39;77.50
63556;BME280;49700;48.072;7.800;2022-12-10T15:20:50;98870.53;;;2.38;77.62
63556;BME280;49700;48.072;7.800;2022-12-10T15:23:23;98868.13;;;2.33;77.51
63556;BME280;49700;48.072;7.800;2022-12-10T15:26:20;98875.00;;;2.34;77.48
63556;BME280;49700;48.072;7.800;2022-12-10T15:28:49;98873.19;;;2.36;77.75
63556;BME280;49700;48.072;7.800;2022-12-10T15:33:54;98881.75;;;2.38;77.49